In Rescue
 
Open Full Screen Window  High Contrast Mode
Wind Gusting 21 knots
15
April 19, 2021 9:38 PM EDT
Weather Information
Wind Direction
  290 °
Wind Speed
  15 kt (17 mph)
Wind Gust
  21 kt (24 mph)
Altimeter
29.86 in
Visibility
10 SM
Temperature
-01° C
30° F
Dewpoint
-08° C
18° F
Humidity
59%
Sky Condition
Broken @ 5,000 ft
Broken @ 4,000 ft
VFR

METAR KSJX 200138Z AUTO 29015G21KT 10SM BKN040 BKN050 M01/M08 A2986 RMK AO2 T10081078

FAA Disclaimer: The data displayed is for advisory purposes only and is not to be used for flight planning or operations.